Time;durP1;ratioP1;P1;durP2;ratioP2;P2;SDS_P1;SDS_P2;PMS_P1;PMS_P2;Temp;Humidity;BMP_temperature;BMP_pressure;BME280_temperature;BME280_humidity;BME280_pressure;Samples;Min_cycle;Max_cycle;Signal;HPM_P1;HPM_P2
2024/01/07 00:01:58;;;;;;;62.55;35.60;;;2.00;99.90;;;;;;4975311;28;20034;-81
2024/01/07 00:04:24;;;;;;;61.37;34.40;;;2.00;99.90;;;;;;4973610;28;20058;-82
2024/01/07 00:06:51;;;;;;;56.43;32.53;;;2.00;99.90;;;;;;4960017;28;20437;-83
2024/01/07 00:09:17;;;;;;;64.53;35.13;;;2.00;99.90;;;;;;4944417;28;20038;-84
2024/01/07 00:11:43;;;;;;;69.65;36.35;;;2.00;99.90;;;;;;4976823;28;20034;-84
2024/01/07 00:14:10;;;;;;;70.20;39.23;;;2.00;99.90;;;;;;4959134;28;20042;-78
2024/01/07 00:16:36;;;;;;;65.93;35.28;;;2.00;99.90;;;;;;4973564;28;20049;-81
2024/01/07 00:19:02;;;;;;;74.80;37.77;;;2.00;99.90;;;;;;4958260;28;20038;-82
2024/01/07 00:21:29;;;;;;;65.67;34.10;;;2.00;99.90;;;;;;4970920;28;20041;-80
2024/01/07 00:23:55;;;;;;;91.72;46.33;;;2.00;99.90;;;;;;4941973;28;20054;-81
2024/01/07 00:26:21;;;;;;;81.27;41.97;;;2.00;99.90;;;;;;4987569;28;20034;-82
2024/01/07 00:28:48;;;;;;;79.27;40.17;;;2.10;99.90;;;;;;4960847;28;20039;-79
2024/01/07 00:31:14;;;;;;;91.47;44.30;;;2.00;99.90;;;;;;4956742;28;20038;-83
2024/01/07 00:33:40;;;;;;;84.97;41.47;;;2.00;99.90;;;;;;4990469;28;20445;-83
2024/01/07 00:36:07;;;;;;;102.10;46.53;;;2.00;99.90;;;;;;4956603;28;20129;-83
2024/01/07 00:38:33;;;;;;;94.95;45.05;;;2.00;99.90;;;;;;4943403;28;20043;-79
2024/01/07 00:40:59;;;;;;;99.43;46.87;;;1.90;99.90;;;;;;4972588;28;20065;-83
2024/01/07 00:43:26;;;;;;;104.27;45.73;;;2.00;99.90;;;;;;4957183;28;20053;-83
2024/01/07 00:45:52;;;;;;;101.57;47.88;;;1.90;99.90;;;;;;4969850;28;20033;-82
2024/01/07 00:48:19;;;;;;;103.57;45.67;;;1.90;99.90;;;;;;4958698;28;20558;-81
2024/01/07 00:50:45;;;;;;;100.40;47.30;;;1.90;99.90;;;;;;4965158;28;20070;-81
2024/01/07 00:53:12;;;;;;;93.27;43.23;;;1.90;99.90;;;;;;4953067;28;20050;-81
2024/01/07 00:55:38;;;;;;;99.03;46.93;;;1.90;99.90;;;;;;4946098;28;20034;-83
2024/01/07 00:58:04;;;;;;;85.47;43.08;;;1.90;99.90;;;;;;4975381;28;20156;-83
2024/01/07 01:00:31;;;;;;;83.17;42.03;;;1.90;99.90;;;;;;4966163;28;20030;-83
2024/01/07 01:02:58;;;;;;;86.17;43.10;;;1.90;99.90;;;;;;4977502;28;20057;-81
2024/01/07 01:05:24;;;;;;;78.13;40.85;;;1.90;99.90;;;;;;4960897;28;20037;-82
2024/01/07 01:07:51;;;;;;;77.93;40.42;;;1.90;99.90;;;;;;4977528;28;20034;-83
2024/01/07 01:10:18;;;;;;;74.43;39.30;;;1.90;99.90;;;;;;4992032;28;20038;-78
2024/01/07 01:12:45;;;;;;;78.70;43.30;;;1.90;99.90;;;;;;4978942;28;21318;-82
2024/01/07 01:15:11;;;;;;;83.73;44.80;;;1.90;99.90;;;;;;4960783;28;20030;-83
2024/01/07 01:17:38;;;;;;;71.70;39.70;;;1.90;99.90;;;;;;4959396;28;20227;-82
2024/01/07 01:20:05;;;;;;;77.00;39.60;;;1.90;99.90;;;;;;4961278;28;20347;-79
2024/01/07 01:22:32;;;;;;;70.47;39.58;;;1.90;99.90;;;;;;4944596;28;21100;-82
2024/01/07 01:24:58;;;;;;;76.00;40.57;;;1.80;99.90;;;;;;4977401;28;20493;-84
2024/01/07 01:27:25;;;;;;;71.00;38.97;;;1.80;99.90;;;;;;4961678;28;20039;-81
2024/01/07 01:29:52;;;;;;;63.85;37.47;;;1.80;99.90;;;;;;4973861;28;20025;-80
2024/01/07 01:32:18;;;;;;;71.10;38.47;;;1.80;99.90;;;;;;4956148;28;20038;-82
2024/01/07 01:34:44;;;;;;;65.13;37.07;;;1.80;99.90;;;;;;4960306;28;20373;-83
2024/01/07 01:37:11;;;;;;;68.97;39.33;;;1.80;99.90;;;;;;4977857;28;20042;-80
2024/01/07 01:39:41;;;;;;;62.67;34.60;;;1.80;99.90;;;;;;4975477;28;20382;-78
2024/01/07 01:42:07;;;;;;;71.18;36.35;;;1.70;99.90;;;;;;4975736;28;20057;-83
2024/01/07 01:44:34;;;;;;;72.77;40.60;;;1.80;99.90;;;;;;4958052;28;20030;-82
2024/01/07 01:47:01;;;;;;;70.47;41.67;;;1.80;99.90;;;;;;4958772;28;20381;-81
2024/01/07 01:49:28;;;;;;;73.35;40.95;;;1.80;99.90;;;;;;4958730;28;20213;-78
2024/01/07 01:51:55;;;;;;;75.20;41.30;;;1.80;99.90;;;;;;4957144;28;20274;-81
2024/01/07 01:54:22;;;;;;;70.03;38.25;;;1.70;99.90;;;;;;4958151;28;20046;-80
2024/01/07 01:56:49;;;;;;;68.45;39.70;;;1.70;99.90;;;;;;4961544;28;20039;-82
2024/01/07 01:59:16;;;;;;;78.30;41.77;;;1.70;99.90;;;;;;4973423;28;20026;-78
2024/01/07 02:01:42;;;;;;;80.13;41.37;;;1.70;99.90;;;;;;4976977;28;20037;-78
2024/01/07 02:04:09;;;;;;;71.50;37.78;;;1.70;99.90;;;;;;4975716;28;20038;-82
2024/01/07 02:06:36;;;;;;;70.35;38.95;;;1.70;99.90;;;;;;4991456;28;20045;-82
2024/01/07 02:09:03;;;;;;;80.90;40.70;;;1.70;99.90;;;;;;4975832;28;20811;-81
2024/01/07 02:11:29;;;;;;;88.77;41.77;;;1.70;99.90;;;;;;4975438;28;20033;-81
2024/01/07 02:13:56;;;;;;;91.90;41.30;;;1.70;99.90;;;;;;4960343;28;20041;-83
2024/01/07 02:16:23;;;;;;;84.93;41.27;;;1.70;99.90;;;;;;4974734;28;20037;-80
2024/01/07 02:18:50;;;;;;;105.30;48.30;;;1.70;99.90;;;;;;4957413;28;20030;-83
2024/01/07 02:21:16;;;;;;;91.50;43.92;;;1.70;99.90;;;;;;4974228;28;20387;-81
2024/01/07 02:23:42;;;;;;;80.70;41.70;;;1.70;99.90;;;;;;4975853;28;20058;-83
2024/01/07 02:26:09;;;;;;;85.93;44.47;;;1.70;99.90;;;;;;4956473;28;20054;-82
2024/01/07 02:28:35;;;;;;;95.60;43.40;;;1.60;99.90;;;;;;4958300;28;20043;-82
2024/01/07 02:31:01;;;;;;;91.80;41.83;;;1.60;99.90;;;;;;4972791;28;20492;-81
2024/01/07 02:33:29;;;;;;;83.93;42.03;;;1.60;99.90;;;;;;4975181;28;20041;-81
2024/01/07 02:35:55;;;;;;;75.53;37.03;;;1.60;99.90;;;;;;4973680;28;20037;-82
2024/01/07 02:38:22;;;;;;;81.07;41.42;;;1.60;99.90;;;;;;4975912;28;20045;-82
2024/01/07 02:40:49;;;;;;;73.33;38.23;;;1.60;99.90;;;;;;4975062;28;20031;-80
2024/01/07 02:43:15;;;;;;;76.30;39.43;;;1.60;99.90;;;;;;4959542;28;20038;-80
2024/01/07 02:45:41;;;;;;;71.97;37.33;;;1.60;99.90;;;;;;4956420;28;20026;-82
2024/01/07 02:48:08;;;;;;;67.90;33.83;;;1.60;99.90;;;;;;4958034;28;20022;-81
2024/01/07 02:50:35;;;;;;;70.90;35.05;;;1.60;99.90;;;;;;4974594;28;20037;-78
2024/01/07 02:53:01;;;;;;;76.03;40.30;;;1.70;99.90;;;;;;4959169;28;20034;-77
2024/01/07 02:55:28;;;;;;;75.05;39.83;;;1.70;99.90;;;;;;4988813;28;20038;-78
2024/01/07 02:57:54;;;;;;;81.67;41.93;;;1.70;99.90;;;;;;4960105;28;20023;-80
2024/01/07 03:00:20;;;;;;;68.90;37.25;;;1.70;99.90;;;;;;4973863;28;20466;-79
2024/01/07 03:02:47;;;;;;;74.60;39.73;;;1.60;99.90;;;;;;4973326;28;20037;-77
2024/01/07 03:05:13;;;;;;;74.10;38.83;;;1.60;99.90;;;;;;4973946;28;20793;-81
2024/01/07 03:07:40;;;;;;;65.20;37.30;;;1.60;99.90;;;;;;4957830;28;20038;-80
2024/01/07 03:10:07;;;;;;;68.50;38.50;;;1.60;99.90;;;;;;4990154;28;20034;-80
2024/01/07 03:12:33;;;;;;;66.53;37.17;;;1.60;99.90;;;;;;4975671;28;20062;-78
2024/01/07 03:15:00;;;;;;;64.00;34.30;;;1.50;99.90;;;;;;4959600;28;20614;-79
2024/01/07 03:17:26;;;;;;;57.40;35.47;;;1.50;99.90;;;;;;4976359;28;20049;-80
2024/01/07 03:19:53;;;;;;;56.43;32.90;;;1.50;99.90;;;;;;4974072;28;20042;-78
2024/01/07 03:22:19;;;;;;;53.30;32.53;;;1.50;99.90;;;;;;4971621;28;20022;-81
2024/01/07 03:24:47;;;;;;;58.17;32.73;;;1.50;99.90;;;;;;4939675;28;20061;-81
2024/01/07 03:27:13;;;;;;;53.72;32.35;;;1.50;99.90;;;;;;4957258;28;20483;-81
2024/01/07 03:29:39;;;;;;;53.55;30.58;;;1.50;99.90;;;;;;4957205;28;20034;-82
2024/01/07 03:32:06;;;;;;;50.83;32.10;;;1.50;99.90;;;;;;4987544;28;20057;-81
2024/01/07 03:34:33;;;;;;;50.60;30.52;;;1.50;99.90;;;;;;4990559;28;20039;-80
2024/01/07 03:36:59;;;;;;;50.07;30.30;;;1.50;99.90;;;;;;4976921;28;20034;-81
2024/01/07 03:39:25;;;;;;;49.23;30.30;;;1.50;99.90;;;;;;4974109;28;20078;-79
2024/01/07 03:41:55;;;;;;;53.70;31.90;;;1.50;99.90;;;;;;4957306;28;20418;-81
2024/01/07 03:44:22;;;;;;;48.90;29.20;;;1.50;99.90;;;;;;4958742;28;20037;-81
2024/01/07 03:46:49;;;;;;;50.73;31.40;;;1.50;99.90;;;;;;4974119;28;20037;-79
2024/01/07 03:49:15;;;;;;;47.97;31.20;;;1.50;99.90;;;;;;4958454;28;20037;-81
2024/01/07 03:51:41;;;;;;;48.93;30.77;;;1.50;99.90;;;;;;4974503;28;20046;-81
2024/01/07 03:54:08;;;;;;;47.27;30.87;;;1.40;99.90;;;;;;4942413;28;20045;-79
2024/01/07 03:56:34;;;;;;;46.17;30.13;;;1.40;99.90;;;;;;4974266;28;20030;-80
2024/01/07 03:59:00;;;;;;;50.67;33.03;;;1.40;99.90;;;;;;4974152;28;20033;-80
2024/01/07 04:01:27;;;;;;;45.63;29.37;;;1.40;99.90;;;;;;4972606;28;20042;-81
2024/01/07 04:03:53;;;;;;;50.10;33.30;;;1.40;99.90;;;;;;4973073;28;20046;-81
2024/01/07 04:06:20;;;;;;;48.83;31.30;;;1.30;99.90;;;;;;4957232;28;20033;-81
2024/01/07 04:08:46;;;;;;;49.70;31.07;;;1.30;99.90;;;;;;4958863;28;20040;-80
2024/01/07 04:11:13;;;;;;;49.27;31.70;;;1.30;99.90;;;;;;4957187;28;20087;-79
2024/01/07 04:13:39;;;;;;;52.00;32.63;;;1.30;99.90;;;;;;4973255;28;20359;-80
2024/01/07 04:16:06;;;;;;;52.40;34.07;;;1.30;99.90;;;;;;4972327;28;20065;-79
2024/01/07 04:18:32;;;;;;;51.93;33.20;;;1.30;99.90;;;;;;4942694;28;20069;-81
2024/01/07 04:20:58;;;;;;;47.43;33.17;;;1.30;99.90;;;;;;4991604;28;20393;-83
2024/01/07 04:23:24;;;;;;;48.47;32.13;;;1.30;99.90;;;;;;4974901;28;20034;-80
2024/01/07 04:25:51;;;;;;;53.70;35.37;;;1.30;99.90;;;;;;4956977;28;22646;-77
2024/01/07 04:28:17;;;;;;;49.27;33.63;;;1.30;99.90;;;;;;4975143;28;20038;-80
2024/01/07 04:30:43;;;;;;;52.30;33.22;;;1.30;99.90;;;;;;4973103;28;20045;-81
2024/01/07 04:33:10;;;;;;;48.87;33.03;;;1.30;99.90;;;;;;4973302;28;20030;-81
2024/01/07 04:35:36;;;;;;;50.30;34.40;;;1.30;99.90;;;;;;4955472;28;20034;-79
2024/01/07 04:38:03;;;;;;;49.33;32.53;;;1.30;99.90;;;;;;4976776;28;20049;-82
2024/01/07 04:40:29;;;;;;;50.30;33.70;;;1.30;99.90;;;;;;4976190;28;20057;-81
2024/01/07 04:42:55;;;;;;;54.13;35.73;;;1.30;99.90;;;;;;4975758;28;20022;-83
2024/01/07 04:45:21;;;;;;;51.33;33.33;;;1.30;99.90;;;;;;4957396;28;20042;-83
2024/01/07 04:47:48;;;;;;;50.83;33.28;;;1.30;99.90;;;;;;4962196;28;20045;-79
2024/01/07 04:50:15;;;;;;;44.77;30.33;;;1.20;99.90;;;;;;4979064;28;20022;-81
2024/01/07 04:52:41;;;;;;;52.33;33.80;;;1.20;99.90;;;;;;4977020;28;20034;-84
2024/01/07 04:55:09;;;;;;;45.73;33.23;;;1.20;99.90;;;;;;4976104;28;20594;-82
2024/01/07 04:57:35;;;;;;;50.17;34.07;;;1.20;99.90;;;;;;4976662;28;20022;-82
2024/01/07 05:00:03;;;;;;;51.47;34.57;;;1.20;99.90;;;;;;4977990;28;20053;-80
2024/01/07 05:02:29;;;;;;;45.60;32.57;;;1.20;99.90;;;;;;4980100;28;20036;-83
2024/01/07 05:04:56;;;;;;;48.87;33.50;;;1.20;99.90;;;;;;4993017;28;20045;-80
2024/01/07 05:07:22;;;;;;;46.87;32.57;;;1.20;99.90;;;;;;4977820;28;20381;-82
2024/01/07 05:09:49;;;;;;;46.22;31.77;;;1.20;99.90;;;;;;4960918;28;20053;-82
2024/01/07 05:12:15;;;;;;;48.60;32.93;;;1.20;99.90;;;;;;4961170;28;20022;-83
2024/01/07 05:14:42;;;;;;;43.73;30.27;;;1.20;99.90;;;;;;4975390;28;20038;-84
2024/01/07 05:17:09;;;;;;;45.17;32.83;;;1.20;99.90;;;;;;4959869;28;20034;-84
2024/01/07 05:19:36;;;;;;;43.37;30.80;;;1.10;99.90;;;;;;4963328;28;20053;-82
2024/01/07 05:22:02;;;;;;;41.37;30.17;;;1.10;99.90;;;;;;4993228;28;20031;-78
2024/01/07 05:24:28;;;;;;;41.60;30.47;;;1.10;99.90;;;;;;4976794;28;20045;-82
2024/01/07 05:26:55;;;;;;;39.43;28.87;;;1.20;99.90;;;;;;4960564;28;20222;-85
2024/01/07 05:29:22;;;;;;;39.97;29.83;;;1.10;99.90;;;;;;4962076;28;20504;-81
2024/01/07 05:31:48;;;;;;;35.10;25.77;;;1.10;99.90;;;;;;4958973;28;21000;-84
2024/01/07 05:34:14;;;;;;;38.67;27.90;;;1.10;99.90;;;;;;4961904;28;20047;-81
2024/01/07 05:36:41;;;;;;;39.07;29.50;;;1.10;99.90;;;;;;4963660;28;20544;-77
2024/01/07 05:39:07;;;;;;;40.13;30.40;;;1.10;99.90;;;;;;4975386;28;20165;-83
2024/01/07 05:41:36;;;;;;;39.03;28.13;;;1.10;99.90;;;;;;4975602;28;20041;-79
2024/01/07 05:44:03;;;;;;;44.80;29.77;;;1.10;99.90;;;;;;4960669;28;20857;-83
2024/01/07 05:46:29;;;;;;;36.43;27.20;;;1.20;99.90;;;;;;4975614;28;20047;-83
2024/01/07 05:48:56;;;;;;;39.13;28.93;;;1.10;99.90;;;;;;4958103;28;20038;-86
2024/01/07 05:51:22;;;;;;;39.67;29.47;;;1.10;99.90;;;;;;4975187;28;20026;-80
2024/01/07 05:53:48;;;;;;;41.47;29.23;;;1.10;99.90;;;;;;4977228;28;20369;-83
2024/01/07 05:56:15;;;;;;;41.93;29.47;;;1.10;99.90;;;;;;4972832;28;20042;-83
2024/01/07 05:58:41;;;;;;;36.17;26.40;;;1.10;99.90;;;;;;4973996;28;20039;-84
2024/01/07 06:01:08;;;;;;;38.17;28.23;;;1.10;99.90;;;;;;4975798;28;20049;-79
2024/01/07 06:03:34;;;;;;;37.90;28.33;;;1.10;99.90;;;;;;4975546;28;20034;-82
2024/01/07 06:06:01;;;;;;;40.87;29.33;;;1.10;99.90;;;;;;4975981;28;20662;-84
2024/01/07 06:08:27;;;;;;;39.33;28.67;;;1.10;99.90;;;;;;4975388;28;20038;-83
2024/01/07 06:10:53;;;;;;;37.53;27.97;;;1.10;99.90;;;;;;4973297;28;20030;-83
2024/01/07 06:13:20;;;;;;;37.90;28.43;;;1.10;99.90;;;;;;4974458;28;20034;-81
2024/01/07 06:15:46;;;;;;;36.03;25.43;;;1.10;99.90;;;;;;4960138;28;20034;-83
2024/01/07 06:18:13;;;;;;;39.30;28.20;;;1.10;99.90;;;;;;4991817;28;20022;-83
2024/01/07 06:20:39;;;;;;;35.70;26.83;;;1.10;99.90;;;;;;4959559;28;20048;-80
2024/01/07 06:23:05;;;;;;;35.20;25.57;;;1.10;99.90;;;;;;4970520;28;20042;-82
2024/01/07 06:25:32;;;;;;;33.73;25.57;;;1.10;99.90;;;;;;4958478;28;20049;-84
2024/01/07 06:27:58;;;;;;;36.33;26.17;;;1.10;99.90;;;;;;4974584;28;20513;-77
2024/01/07 06:30:25;;;;;;;35.43;24.80;;;1.10;99.90;;;;;;4973835;28;20040;-77
2024/01/07 06:32:52;;;;;;;36.03;25.67;;;1.10;99.90;;;;;;4976701;28;20038;-79
2024/01/07 06:35:19;;;;;;;32.73;25.00;;;1.10;99.90;;;;;;4974328;28;20037;-83
2024/01/07 06:37:45;;;;;;;34.70;25.37;;;1.00;99.90;;;;;;4948933;28;20042;-77
2024/01/07 06:40:11;;;;;;;31.80;24.27;;;1.00;99.90;;;;;;4975608;28;20381;-84
2024/01/07 06:42:38;;;;;;;33.83;25.10;;;1.00;99.90;;;;;;4944993;28;20034;-82
2024/01/07 06:45:05;;;;;;;35.47;25.07;;;1.00;99.90;;;;;;4973357;28;20034;-82
2024/01/07 06:47:31;;;;;;;34.50;24.20;;;1.00;99.90;;;;;;4973883;28;20026;-82
2024/01/07 06:49:57;;;;;;;36.53;24.70;;;1.00;99.90;;;;;;4958664;28;20412;-80
2024/01/07 06:52:24;;;;;;;32.77;24.60;;;1.00;99.90;;;;;;4944566;28;20432;-82
2024/01/07 06:54:50;;;;;;;33.60;26.30;;;1.00;99.90;;;;;;4991381;28;20035;-82
2024/01/07 06:57:16;;;;;;;36.70;25.43;;;1.00;99.90;;;;;;4991944;28;20041;-83
2024/01/07 06:59:43;;;;;;;36.87;25.70;;;1.00;99.90;;;;;;4976533;28;20026;-82
2024/01/07 07:02:10;;;;;;;34.90;24.17;;;1.00;99.90;;;;;;4992289;28;20037;-83
2024/01/07 07:04:36;;;;;;;35.80;25.70;;;1.00;99.90;;;;;;4975012;28;20041;-83
2024/01/07 07:07:03;;;;;;;38.87;25.43;;;0.90;99.90;;;;;;4959880;28;20461;-83
2024/01/07 07:09:29;;;;;;;35.78;24.42;;;0.90;99.90;;;;;;4976791;28;20038;-78
2024/01/07 07:11:56;;;;;;;34.03;24.87;;;0.90;99.90;;;;;;4957258;28;20042;-78
2024/01/07 07:14:22;;;;;;;31.47;23.40;;;0.90;99.90;;;;;;4975768;28;20588;-83
2024/01/07 07:16:48;;;;;;;34.53;24.40;;;0.90;99.90;;;;;;4975186;28;20034;-82
2024/01/07 07:19:16;;;;;;;36.27;24.53;;;1.00;99.90;;;;;;4957740;28;20031;-81
2024/01/07 07:21:44;;;;;;;34.47;25.10;;;0.90;99.90;;;;;;4957529;28;20022;-81
2024/01/07 07:24:10;;;;;;;33.03;24.53;;;1.00;99.90;;;;;;4959279;28;20029;-81
2024/01/07 07:26:40;;;;;;;34.40;24.30;;;0.90;99.90;;;;;;4976737;28;20034;-81
2024/01/07 07:29:09;;;;;;;34.30;23.93;;;0.90;99.90;;;;;;4990806;28;20038;-79
2024/01/07 07:31:36;;;;;;;34.60;25.43;;;0.90;99.90;;;;;;4972624;28;20038;-81
2024/01/07 07:34:08;;;;;;;32.13;24.17;;;0.90;99.90;;;;;;4944037;28;20042;-80
2024/01/07 07:36:35;;;;;;;31.88;23.63;;;0.90;99.90;;;;;;4978209;28;20022;-79
2024/01/07 07:39:01;;;;;;;31.63;23.27;;;0.90;99.90;;;;;;4941222;28;20371;-79
2024/01/07 07:41:28;;;;;;;29.30;23.00;;;0.90;99.90;;;;;;4983569;28;20266;-80
2024/01/07 07:43:54;;;;;;;28.23;21.13;;;0.90;99.90;;;;;;4958931;28;20500;-81
2024/01/07 07:46:21;;;;;;;28.97;23.23;;;0.90;99.90;;;;;;4956450;28;20485;-81
2024/01/07 07:48:48;;;;;;;25.83;20.20;;;0.90;99.90;;;;;;4957860;28;20045;-81
2024/01/07 07:51:14;;;;;;;29.30;21.33;;;0.90;99.90;;;;;;4974027;28;20057;-81
2024/01/07 07:53:41;;;;;;;30.43;23.90;;;0.80;99.90;;;;;;4957935;28;20038;-81
2024/01/07 07:56:08;;;;;;;28.30;22.13;;;0.90;99.90;;;;;;4957335;28;20045;-81
2024/01/07 07:58:34;;;;;;;29.93;21.33;;;0.90;99.90;;;;;;4974151;28;20397;-81
2024/01/07 08:01:01;;;;;;;30.53;21.00;;;0.90;99.90;;;;;;4970550;28;20038;-82
2024/01/07 08:03:27;;;;;;;27.03;21.60;;;0.90;99.90;;;;;;4983962;28;20973;-81
2024/01/07 08:05:53;;;;;;;26.20;20.67;;;0.90;99.90;;;;;;4971659;28;20377;-82
2024/01/07 08:08:20;;;;;;;24.47;18.40;;;0.90;99.90;;;;;;4970642;28;20034;-80
2024/01/07 08:10:46;;;;;;;24.23;19.67;;;0.80;99.90;;;;;;4986830;28;20493;-81
2024/01/07 08:13:12;;;;;;;24.87;19.33;;;0.80;99.90;;;;;;4991010;28;20049;-78
2024/01/07 08:15:38;;;;;;;23.30;19.10;;;0.80;99.90;;;;;;4974889;28;20042;-82
2024/01/07 08:18:05;;;;;;;24.50;19.50;;;0.80;99.90;;;;;;4976103;28;20026;-82
2024/01/07 08:20:31;;;;;;;23.97;19.20;;;0.80;99.90;;;;;;4944028;28;20045;-77
2024/01/07 08:22:58;;;;;;;22.60;17.73;;;0.80;99.90;;;;;;4963190;28;20049;-79
2024/01/07 08:25:24;;;;;;;28.33;21.47;;;0.70;99.90;;;;;;4977226;28;20042;-79
2024/01/07 08:27:51;;;;;;;21.33;17.13;;;0.80;99.90;;;;;;4974609;28;20045;-80
2024/01/07 08:30:17;;;;;;;17.60;15.30;;;0.80;99.90;;;;;;4976089;28;20042;-75
2024/01/07 08:32:43;;;;;;;19.77;17.27;;;0.70;99.90;;;;;;4977269;28;20232;-79
2024/01/07 08:35:10;;;;;;;20.73;17.17;;;0.70;99.90;;;;;;4977448;28;20022;-75
2024/01/07 08:37:36;;;;;;;22.50;18.63;;;0.70;99.90;;;;;;4977298;28;20038;-84
2024/01/07 08:40:03;;;;;;;20.27;17.20;;;0.70;99.90;;;;;;4978269;28;20043;-80
2024/01/07 08:42:30;;;;;;;21.63;15.90;;;0.70;99.90;;;;;;4977646;28;20385;-81
2024/01/07 08:45:00;;;;;;;23.80;18.43;;;0.70;99.90;;;;;;4960213;28;20049;-81
2024/01/07 08:47:26;;;;;;;22.83;17.30;;;0.70;99.90;;;;;;4976519;28;20030;-83
2024/01/07 08:49:53;;;;;;;25.67;19.50;;;0.80;99.90;;;;;;4961532;28;20034;-77
2024/01/07 08:52:20;;;;;;;21.53;18.37;;;0.70;99.90;;;;;;4959541;28;20041;-82
2024/01/07 08:54:46;;;;;;;23.40;18.07;;;0.70;99.90;;;;;;4977508;28;20444;-82
2024/01/07 08:57:12;;;;;;;23.80;18.63;;;0.70;99.90;;;;;;4978249;28;20035;-82
2024/01/07 08:59:39;;;;;;;24.20;18.17;;;0.70;99.90;;;;;;4977095;28;20041;-78
2024/01/07 09:02:05;;;;;;;22.40;17.93;;;0.70;99.90;;;;;;4977186;28;20034;-79
2024/01/07 09:04:33;;;;;;;23.23;17.37;;;0.70;99.90;;;;;;4977858;28;20487;-82
2024/01/07 09:06:59;;;;;;;24.23;16.83;;;0.70;99.90;;;;;;4974240;28;20026;-81
2024/01/07 09:09:26;;;;;;;21.23;16.53;;;0.70;99.90;;;;;;4977717;28;20038;-77
2024/01/07 09:11:52;;;;;;;23.13;16.70;;;0.70;99.90;;;;;;4977461;28;20045;-78
2024/01/07 09:14:19;;;;;;;21.50;16.17;;;0.70;99.90;;;;;;4976020;28;20061;-81
2024/01/07 09:16:45;;;;;;;20.93;16.23;;;0.60;99.90;;;;;;4989648;28;20477;-82
2024/01/07 09:19:12;;;;;;;21.70;15.70;;;0.70;99.90;;;;;;4960803;28;20034;-83
2024/01/07 09:21:38;;;;;;;18.87;13.73;;;0.60;99.90;;;;;;4963828;28;20072;-80
2024/01/07 09:24:05;;;;;;;18.90;14.70;;;0.70;99.90;;;;;;4945117;28;20520;-79
2024/01/07 09:26:31;;;;;;;20.43;15.23;;;0.70;99.90;;;;;;4990075;28;20126;-78
2024/01/07 09:28:57;;;;;;;21.60;15.37;;;0.70;99.90;;;;;;4974017;28;20035;-80
2024/01/07 09:31:24;;;;;;;24.10;16.00;;;0.70;99.90;;;;;;4972059;28;20050;-82
2024/01/07 09:33:50;;;;;;;21.30;15.83;;;0.70;99.90;;;;;;4977112;28;20041;-78
2024/01/07 09:36:16;;;;;;;23.80;16.87;;;0.70;99.90;;;;;;4975238;28;20035;-78
2024/01/07 09:38:43;;;;;;;22.70;14.37;;;0.80;99.90;;;;;;4991742;28;20038;-81
2024/01/07 09:41:09;;;;;;;17.70;12.57;;;0.80;99.90;;;;;;4974447;28;20493;-81
2024/01/07 09:43:36;;;;;;;23.87;15.50;;;0.80;99.90;;;;;;4974240;28;20049;-79
2024/01/07 09:46:03;;;;;;;23.70;15.73;;;0.80;99.90;;;;;;4970868;28;20042;-76
2024/01/07 09:48:29;;;;;;;21.33;14.90;;;0.80;99.90;;;;;;4973998;28;20137;-78
2024/01/07 09:50:58;;;;;;;25.53;15.07;;;0.80;99.90;;;;;;4988883;28;20038;-82
2024/01/07 09:53:29;;;;;;;21.63;13.60;;;0.80;99.90;;;;;;4992472;28;20049;-85
2024/01/07 09:56:18;;;;;;;17.43;12.00;;;0.80;99.90;;;;;;4973726;28;21806;-79
2024/01/07 09:58:49;;;;;;;16.37;12.27;;;0.80;99.90;;;;;;4959484;28;20022;-83
2024/01/07 10:01:18;;;;;;;17.30;12.20;;;0.80;99.90;;;;;;4958572;28;20049;-84
2024/01/07 10:03:45;;;;;;;13.87;9.90;;;0.80;99.90;;;;;;4979033;28;20042;-78
2024/01/07 10:06:12;;;;;;;15.10;10.20;;;0.90;99.90;;;;;;4974946;28;20496;-78
2024/01/07 10:08:39;;;;;;;15.13;10.87;;;0.90;99.90;;;;;;4975360;28;20485;-83
2024/01/07 10:11:09;;;;;;;16.47;11.17;;;0.90;99.90;;;;;;4977616;28;20402;-80
2024/01/07 10:13:35;;;;;;;13.90;10.37;;;1.00;99.90;;;;;;4977007;28;20390;-82
2024/01/07 10:16:02;;;;;;;12.50;9.50;;;1.00;99.90;;;;;;4974060;28;20034;-84
2024/01/07 10:18:31;;;;;;;12.20;9.47;;;1.00;99.90;;;;;;4960519;28;20038;-88
2024/01/07 10:21:03;;;;;;;12.53;8.30;;;1.00;99.90;;;;;;4979556;28;20037;-82
2024/01/07 10:23:30;;;;;;;13.18;9.15;;;1.00;99.90;;;;;;4962213;28;20049;-80
2024/01/07 10:25:57;;;;;;;10.60;8.13;;;1.00;99.90;;;;;;4976654;28;20389;-78
2024/01/07 10:28:23;;;;;;;9.40;6.30;;;1.00;99.90;;;;;;4976340;28;20046;-80
2024/01/07 10:30:50;;;;;;;10.43;7.57;;;1.00;99.90;;;;;;4958900;28;20046;-82
2024/01/07 10:33:19;;;;;;;9.30;6.67;;;1.00;99.90;;;;;;4975669;28;20041;-81
2024/01/07 10:36:06;;;;;;;10.47;7.63;;;1.00;99.90;;;;;;4960361;28;20042;-83
2024/01/07 10:38:35;;;;;;;8.50;6.87;;;1.10;99.90;;;;;;4977499;28;20033;-81
2024/01/07 10:41:04;;;;;;;10.33;6.80;;;1.10;99.90;;;;;;4973899;28;20394;-79
2024/01/07 10:43:32;;;;;;;8.87;6.70;;;1.10;99.90;;;;;;4959327;28;20045;-83
2024/01/07 10:46:04;;;;;;;9.93;6.73;;;1.10;99.90;;;;;;4958276;28;20045;-84
2024/01/07 10:48:34;;;;;;;11.23;8.53;;;1.20;99.90;;;;;;4975337;28;20393;-77
2024/01/07 10:51:01;;;;;;;10.20;7.77;;;1.20;99.90;;;;;;4975080;28;20297;-79
2024/01/07 10:53:32;;;;;;;9.70;7.07;;;1.30;99.90;;;;;;4941201;28;20045;-81
2024/01/07 10:56:03;;;;;;;10.63;5.90;;;1.40;99.90;;;;;;4977147;28;20030;-80
2024/01/07 10:58:36;;;;;;;8.87;6.70;;;1.40;99.90;;;;;;4973551;28;20045;-78
2024/01/07 11:01:04;;;;;;;;;;;1.40;99.90;;;;;;4974034;28;20046;-84
2024/01/07 11:03:51;;;;;;;12.23;5.10;;;1.40;99.90;;;;;;4957846;28;19910;-88
2024/01/07 11:06:42;;;;;;;9.30;6.57;;;1.40;99.90;;;;;;4974341;28;20046;-82
2024/01/07 11:09:33;;;;;;;8.13;5.63;;;1.40;99.90;;;;;;4973528;28;20046;-85
2024/01/07 11:12:00;;;;;;;7.13;5.70;;;1.30;99.90;;;;;;4956454;28;20038;-85
2024/01/07 11:14:42;;;;;;;8.50;6.10;;;1.30;99.90;;;;;;4971803;28;20039;-84
2024/01/07 11:17:09;;;;;;;8.60;5.93;;;1.30;99.90;;;;;;4956639;28;20045;-85
2024/01/07 11:19:36;;;;;;;8.43;6.17;;;1.30;99.90;;;;;;4941945;28;20310;-84
2024/01/07 11:22:25;;;;;;;6.93;5.20;;;1.30;99.90;;;;;;4959486;28;20446;-82
2024/01/07 11:24:51;;;;;;;7.13;4.90;;;1.30;99.90;;;;;;4992127;28;20034;-87
2024/01/07 11:27:18;;;;;;;7.27;5.63;;;1.30;99.90;;;;;;4974660;28;20050;-83
2024/01/07 11:29:52;;;;;;;6.78;4.25;;;1.30;99.90;;;;;;4990301;28;20035;-85
2024/01/07 11:32:18;;;;;;;7.77;4.60;;;1.40;99.90;;;;;;4976616;28;20041;-87
2024/01/07 11:34:49;;;;;;;6.20;4.20;;;1.50;99.90;;;;;;4974229;28;20042;-87
2024/01/07 11:37:15;;;;;;;5.65;4.38;;;1.50;99.90;;;;;;4976043;28;20062;-84
2024/01/07 11:39:44;;;;;;;6.30;3.90;;;1.50;99.90;;;;;;4944287;28;20370;-87
2024/01/07 11:42:11;;;;;;;4.40;3.00;;;1.50;99.90;;;;;;4972597;28;20049;-85
2024/01/07 11:44:44;;;;;;;8.27;3.67;;;1.40;99.90;;;;;;4972155;28;20034;-89
2024/01/07 11:47:11;;;;;;;5.73;3.57;;;1.40;99.90;;;;;;4960289;28;20042;-85
2024/01/07 11:49:39;;;;;;;5.77;3.30;;;1.30;99.90;;;;;;4979264;28;20121;-87
2024/01/07 11:52:05;;;;;;;6.20;3.23;;;1.30;99.90;;;;;;4962973;28;20504;-84
2024/01/07 11:54:32;;;;;;;5.23;3.33;;;1.20;99.90;;;;;;4977899;28;20046;-85
2024/01/07 11:56:58;;;;;;;4.83;3.33;;;1.10;99.90;;;;;;4979212;28;20624;-86
2024/01/07 11:59:26;;;;;;;5.32;2.38;;;1.10;99.90;;;;;;4978176;28;20509;-80
2024/01/07 12:01:54;;;;;;;6.03;2.30;;;1.10;99.90;;;;;;4979911;28;20046;-88
2024/01/07 12:04:20;;;;;;;4.90;2.63;;;1.00;99.90;;;;;;4977370;28;20034;-87
2024/01/07 12:06:48;;;;;;;5.10;2.40;;;1.00;99.90;;;;;;4964044;28;20047;-84
2024/01/07 12:09:15;;;;;;;4.27;2.40;;;1.00;99.90;;;;;;4965116;28;20453;-81
2024/01/07 12:11:43;;;;;;;3.40;2.03;;;1.10;99.90;;;;;;4982344;28;20412;-83
2024/01/07 12:14:10;;;;;;;3.40;1.80;;;1.10;99.90;;;;;;4961282;28;20037;-87
2024/01/07 12:16:37;;;;;;;4.43;1.33;;;1.10;99.90;;;;;;4977216;28;20030;-87
2024/01/07 12:19:04;;;;;;;5.27;1.80;;;1.10;99.90;;;;;;4962234;28;20556;-84
2024/01/07 12:21:30;;;;;;;2.63;1.57;;;1.20;99.90;;;;;;4962437;28;20041;-88
2024/01/07 12:23:57;;;;;;;5.57;2.50;;;1.40;99.90;;;;;;4945738;28;20034;-85
2024/01/07 12:26:28;;;;;;;4.13;1.07;;;1.50;99.90;;;;;;4975973;28;20053;-85
2024/01/07 12:28:59;;;;;;;3.27;1.83;;;1.60;99.90;;;;;;4965243;28;20039;-83
2024/01/07 12:31:26;;;;;;;3.00;1.40;;;1.60;99.90;;;;;;4961083;28;20073;-79
2024/01/07 12:33:53;;;;;;;3.60;1.53;;;1.50;99.90;;;;;;4978622;28;20045;-81
2024/01/07 12:36:26;;;;;;;4.80;1.10;;;1.40;99.90;;;;;;4992366;28;20026;-89
2024/01/07 12:38:57;;;;;;;3.85;1.42;;;1.30;99.90;;;;;;4946661;28;20061;-82
2024/01/07 12:41:24;;;;;;;2.27;1.07;;;1.20;99.90;;;;;;4960199;28;20041;-83